Time;durP1;ratioP1;P1;durP2;ratioP2;P2;SDS_P1;SDS_P2;PMS_P1;PMS_P2;Temp;Humidity;BMP_temperature;BMP_pressure;BME280_temperature;BME280_humidity;BME280_pressure;Samples;Min_cycle;Max_cycle;Signal;HPM_P1;HPM_P2
2023/02/25 00:04:57;;;;;;;14.67;2.17;;;;;2.90;100390.00;;;;10065146;29;20222;-78
2023/02/25 00:10:00;;;;;;;10.17;1.87;;;;;2.90;100392.00;;;;10064960;29;20199;-77
2023/02/25 00:15:02;;;;;;;6.07;1.90;;;;;2.90;100391.00;;;;10049744;29;20287;-77
2023/02/25 00:20:08;;;;;;;6.97;1.70;;;;;2.90;100395.00;;;;10012047;29;20626;-77
2023/02/25 00:25:10;;;;;;;9.57;2.13;;;;;2.80;100397.00;;;;10011044;29;20209;-77
2023/02/25 00:30:13;;;;;;;16.90;2.83;;;;;2.80;100395.00;;;;10026149;29;20270;-78
2023/02/25 00:35:15;;;;;;;4.90;2.27;;;;;2.80;100404.00;;;;10009829;29;20205;-77
2023/02/25 00:40:17;;;;;;;7.37;2.00;;;;;2.70;100422.00;;;;10009973;29;20244;-77
2023/02/25 00:45:19;;;;;;;9.00;2.30;;;;;2.70;100413.00;;;;10009937;29;20236;-77
2023/02/25 00:50:21;;;;;;;10.70;2.10;;;;;2.70;100409.00;;;;10009412;29;20281;-78
2023/02/25 00:55:22;;;;;;;5.40;1.40;;;;;2.80;100417.00;;;;10025534;29;20197;-77
2023/02/25 01:00:24;;;;;;;8.83;1.87;;;;;2.90;100417.00;;;;10039849;29;20205;-77
2023/02/25 01:05:26;;;;;;;4.30;1.33;;;;;3.00;100422.00;;;;10039138;29;20615;-78
2023/02/25 01:10:28;;;;;;;10.27;1.97;;;;;2.90;100415.00;;;;10055628;29;20203;-77
2023/02/25 01:15:31;;;;;;;9.77;1.73;;;;;2.80;100413.00;;;;10039674;29;20233;-77
2023/02/25 01:20:38;;;;;;;9.60;2.27;;;;;2.70;100413.00;;;;10038944;29;20628;-77
2023/02/25 01:25:40;;;;;;;8.87;1.93;;;;;2.50;100409.00;;;;10010905;29;20223;-78
2023/02/25 01:30:43;;;;;;;7.37;1.93;;;;;2.70;100435.00;;;;10077735;29;20678;-77
2023/02/25 01:35:46;;;;;;;11.60;2.33;;;;;2.80;100429.00;;;;10077638;29;20196;-78
2023/02/25 01:40:57;;;;;;;7.20;1.50;;;;;2.90;100411.00;;;;10061668;29;20238;-78
2023/02/25 01:45:59;;;;;;;6.97;2.00;;;;;2.90;100410.00;;;;10061409;29;20212;-77
2023/02/25 01:51:06;;;;;;;7.30;1.87;;;;;2.90;100412.00;;;;10075812;29;20222;-77
2023/02/25 01:56:10;;;;;;;4.73;1.47;;;;;2.70;100409.00;;;;10041400;29;20197;-77
2023/02/25 02:01:17;;;;;;;3.10;1.70;;;;;2.50;100413.00;;;;10037225;29;20201;-78
2023/02/25 02:06:28;;;;;;;8.73;1.43;;;;;2.30;100420.00;;;;10035907;29;20310;-78
2023/02/25 02:11:31;;;;;;;5.07;1.03;;;;;2.10;100420.00;;;;10061814;29;20216;-77
2023/02/25 02:16:57;;;;;;;2.67;1.40;;;;;1.90;100428.00;;;;10047622;29;20204;-78
2023/02/25 02:22:15;;;;;;;4.17;1.13;;;;;1.90;100435.00;;;;10076892;29;20207;-78
2023/02/25 02:27:32;;;;;;;12.40;2.10;;;;;2.10;100444.00;;;;10077372;29;20213;-78
2023/02/25 02:32:43;;;;;;;5.00;1.23;;;;;2.30;100440.00;;;;10046519;29;20199;-78
2023/02/25 02:38:11;;;;;;;8.13;1.60;;;;;2.40;100417.00;;;;10061452;29;20192;-78
2023/02/25 02:43:50;;;;;;;4.50;1.40;;;;;2.60;100403.00;;;;10060006;29;20219;-79
2023/02/25 02:49:05;;;;;;;4.50;1.50;;;;;2.80;100410.00;;;;10044887;29;20252;-78
2023/02/25 02:54:12;;;;;;;5.50;1.77;;;;;2.80;100413.00;;;;10045483;29;20189;-79
2023/02/25 02:59:24;;;;;;;5.67;1.73;;;;;2.90;100413.00;;;;10052452;29;20203;-78
2023/02/25 03:04:29;;;;;;;7.33;1.77;;;;;2.90;100410.00;;;;10044886;29;20295;-78
2023/02/25 03:09:37;;;;;;;7.07;1.90;;;;;3.00;100412.00;;;;10060380;29;20196;-78
2023/02/25 03:14:39;;;;;;;10.00;1.50;;;;;3.00;100421.00;;;;10051265;29;20292;-79
2023/02/25 03:20:26;;;;;;;8.30;1.63;;;;;3.00;100425.00;;;;10045619;29;20628;-78
2023/02/25 03:25:34;;;;;;;4.57;1.53;;;;;3.00;100437.00;;;;10049575;29;20235;-78
2023/02/25 03:31:00;;;;;;;11.63;2.00;;;;;3.00;100434.00;;;;10036101;29;20193;-78
2023/02/25 03:36:10;;;;;;;9.50;1.63;;;;;3.10;100434.00;;;;10081453;29;20196;-78
2023/02/25 03:41:15;;;;;;;9.67;1.70;;;;;3.10;100434.00;;;;10065737;29;20238;-78
2023/02/25 03:46:18;;;;;;;11.10;1.77;;;;;3.10;100438.00;;;;10065633;29;20296;-79
2023/02/25 03:51:28;;;;;;;9.27;1.53;;;;;3.10;100432.00;;;;10034696;29;20200;-78
2023/02/25 03:56:40;;;;;;;9.70;2.00;;;;;3.20;100437.00;;;;10056410;29;20205;-78
2023/02/25 04:01:46;;;;;;;9.07;1.70;;;;;3.20;100428.00;;;;10060880;29;20204;-78
2023/02/25 04:06:48;;;;;;;8.13;1.77;;;;;3.20;100432.00;;;;10049293;29;20264;-78
2023/02/25 04:11:55;;;;;;;9.37;1.70;;;;;3.20;100442.00;;;;10064434;29;20297;-78
2023/02/25 04:16:57;;;;;;;16.17;2.00;;;;;3.20;100442.00;;;;10048421;29;20193;-78
2023/02/25 04:22:00;;;;;;;6.50;1.80;;;;;3.20;100438.00;;;;10063167;29;20196;-78
2023/02/25 04:27:02;;;;;;;12.13;2.00;;;;;3.30;100444.00;;;;10077755;29;20553;-78
2023/02/25 04:32:04;;;;;;;9.23;2.10;;;;;3.30;100445.00;;;;10062811;29;20200;-78
2023/02/25 04:37:08;;;;;;;9.50;1.73;;;;;3.30;100458.00;;;;10058636;29;20201;-79
2023/02/25 04:42:10;;;;;;;6.90;2.07;;;;;3.30;100457.00;;;;10024223;29;20316;-78
2023/02/25 04:47:11;;;;;;;8.27;1.80;;;;;3.40;100463.00;;;;10024672;29;20250;-78
2023/02/25 04:52:14;;;;;;;11.67;2.17;;;;;3.40;100463.00;;;;10025102;29;20204;-78
2023/02/25 04:57:16;;;;;;;10.50;1.93;;;;;3.40;100458.00;;;;10038739;29;20215;-79
2023/02/25 05:02:18;;;;;;;9.47;1.67;;;;;3.50;100453.00;;;;10047358;29;20192;-78
2023/02/25 05:07:21;;;;;;;10.30;1.37;;;;;3.50;100462.00;;;;10062362;29;20227;-78
2023/02/25 05:12:23;;;;;;;11.87;1.70;;;;;3.40;100462.00;;;;10046660;29;20204;-79
2023/02/25 05:17:25;;;;;;;8.33;1.90;;;;;3.40;100458.00;;;;10061946;29;20256;-78
2023/02/25 05:22:27;;;;;;;9.00;2.03;;;;;3.40;100461.00;;;;10061429;29;20564;-78
2023/02/25 05:27:30;;;;;;;6.07;1.37;;;;;3.30;100469.00;;;;10060572;29;20220;-78
2023/02/25 05:32:32;;;;;;;7.47;2.10;;;;;3.40;100460.00;;;;10061265;29;20185;-78
2023/02/25 05:37:34;;;;;;;5.77;1.90;;;;;3.40;100468.00;;;;10061031;29;20201;-78
2023/02/25 05:42:36;;;;;;;6.90;1.43;;;;;3.40;100460.00;;;;10076295;29;20258;-78
2023/02/25 05:47:38;;;;;;;9.77;2.03;;;;;3.40;100463.00;;;;10061410;29;20220;-78
2023/02/25 05:52:40;;;;;;;6.80;1.73;;;;;3.40;100461.00;;;;10030676;29;20193;-78
2023/02/25 05:57:42;;;;;;;1.73;1.33;;;;;3.40;100463.00;;;;10028449;29;20200;-78
2023/02/25 06:02:44;;;;;;;4.53;2.17;;;;;3.50;100472.00;;;;10060270;29;20200;-79
2023/02/25 06:07:47;;;;;;;9.23;1.70;;;;;3.40;100460.00;;;;10047526;29;20275;-78
2023/02/25 06:12:48;;;;;;;7.40;1.77;;;;;3.40;100484.00;;;;10007241;29;20375;-78
2023/02/25 06:17:50;;;;;;;9.97;1.60;;;;;3.30;100480.00;;;;10007569;29;20300;-79
2023/02/25 06:22:53;;;;;;;11.07;1.53;;;;;3.40;100487.00;;;;10038220;29;20597;-79
2023/02/25 06:27:56;;;;;;;8.43;1.73;;;;;3.50;100487.00;;;;10008037;29;20229;-78
2023/02/25 06:32:58;;;;;;;8.77;1.70;;;;;3.50;100492.00;;;;10037135;29;20673;-78
2023/02/25 06:38:00;;;;;;;19.03;2.07;;;;;3.50;100501.00;;;;9991954;29;20642;-78
2023/02/25 06:43:02;;;;;;;8.67;1.63;;;;;3.50;100506.00;;;;10022147;29;20255;-78
2023/02/25 06:48:05;;;;;;;8.30;1.63;;;;;3.60;100505.00;;;;10042447;29;20329;-78
2023/02/25 06:53:08;;;;;;;11.23;1.70;;;;;3.70;100510.00;;;;10037048;29;20197;-78
2023/02/25 06:58:10;;;;;;;10.70;2.07;;;;;3.70;100518.00;;;;10050877;29;20555;-78
2023/02/25 07:03:12;;;;;;;8.53;1.73;;;;;3.80;100525.00;;;;10051904;29;20267;-78
2023/02/25 07:08:14;;;;;;;7.07;1.77;;;;;3.70;100512.00;;;;10082435;29;20256;-78
2023/02/25 07:13:16;;;;;;;11.80;1.70;;;;;3.70;100523.00;;;;10050547;29;20207;-78
2023/02/25 07:18:19;;;;;;;5.60;1.33;;;;;3.70;100526.00;;;;10050679;29;20672;-78
2023/02/25 07:23:21;;;;;;;6.77;1.50;;;;;3.90;100537.00;;;;10050506;29;20762;-78
2023/02/25 07:28:23;;;;;;;6.00;1.87;;;;;4.00;100534.00;;;;10064277;29;20220;-79
2023/02/25 07:33:25;;;;;;;10.10;2.43;;;;;4.20;100540.00;;;;10065695;29;20204;-78
2023/02/25 07:38:26;;;;;;;7.67;2.20;;;;;4.30;100547.00;;;;10049883;29;20196;-78
2023/02/25 07:43:29;;;;;;;12.30;2.10;;;;;4.40;100545.00;;;;10050240;29;20223;-79
2023/02/25 07:48:31;;;;;;;7.20;1.73;;;;;4.30;100548.00;;;;10079878;29;20219;-78
2023/02/25 07:53:33;;;;;;;3.70;1.80;;;;;4.30;100565.00;;;;10027209;29;20212;-78
2023/02/25 07:58:36;;;;;;;5.53;1.43;;;;;4.50;100563.00;;;;10040285;29;20288;-78
2023/02/25 08:03:38;;;;;;;7.67;1.63;;;;;4.80;100556.00;;;;10025900;29;20209;-78
2023/02/25 08:08:40;;;;;;;3.07;1.27;;;;;5.30;100558.00;;;;9995569;29;20558;-78
2023/02/25 08:13:42;;;;;;;11.13;1.70;;;;;5.80;100551.00;;;;10030500;29;20193;-78
2023/02/25 08:18:44;;;;;;;9.40;1.67;;;;;5.70;100566.00;;;;10040696;29;20200;-78
2023/02/25 08:23:49;;;;;;;8.27;1.67;;;;;5.80;100568.00;;;;10024873;29;20231;-78
2023/02/25 08:28:51;;;;;;;8.83;1.97;;;;;5.50;100576.00;;;;10049358;29;20749;-78
2023/02/25 08:33:53;;;;;;;10.13;1.63;;;;;5.00;100588.00;;;;10024479;29;20565;-78
2023/02/25 08:38:57;;;;;;;6.37;1.33;;;;;5.10;100594.00;;;;10025244;29;20549;-78
2023/02/25 08:44:00;;;;;;;7.57;1.80;;;;;5.80;100593.00;;;;10008933;29;20252;-78
2023/02/25 08:49:04;;;;;;;7.37;1.70;;;;;6.90;100568.00;;;;10020504;29;20211;-78
2023/02/25 08:54:08;;;;;;;7.67;1.77;;;;;8.10;100567.00;;;;10067285;29;20258;-78
2023/02/25 08:59:12;;;;;;;5.97;1.50;;;;;8.10;100575.00;;;;10015021;29;20197;-79
2023/02/25 09:04:21;;;;;;;8.63;1.70;;;;;7.50;100565.00;;;;10023290;29;20227;-78
2023/02/25 09:09:24;;;;;;;7.50;1.80;;;;;7.10;100582.00;;;;10020956;29;20714;-78
2023/02/25 09:14:26;;;;;;;7.43;1.50;;;;;7.50;100587.00;;;;10061154;29;20279;-78
2023/02/25 09:19:28;;;;;;;7.13;1.30;;;;;7.60;100588.00;;;;10045406;29;20192;-78
2023/02/25 09:24:32;;;;;;;16.23;2.70;;;;;7.30;100587.00;;;;10060660;29;20682;-78
2023/02/25 09:29:35;;;;;;;5.03;1.43;;;;;7.90;100575.00;;;;10059863;29;20226;-78
2023/02/25 09:34:37;;;;;;;9.57;1.40;;;;;8.20;100586.00;;;;10070305;29;20704;-78
2023/02/25 09:39:41;;;;;;;4.33;1.70;;;;;7.90;100581.00;;;;10053029;29;20719;-78
2023/02/25 09:44:49;;;;;;;4.57;1.03;;;;;7.40;100589.00;;;;10006604;29;20644;-79
2023/02/25 09:50:07;;;;;;;8.97;1.60;;;;;8.30;100586.00;;;;10006581;29;20193;-79
2023/02/25 09:55:34;;;;;;;10.67;2.07;;;;;9.10;100583.00;;;;10042976;29;20294;-78
2023/02/25 10:00:56;;;;;;;11.80;1.80;;;;;9.30;100603.00;;;;10048309;29;20290;-79
2023/02/25 10:06:09;;;;;;;3.70;1.30;;;;;9.40;100592.00;;;;10044994;29;20204;-78
2023/02/25 10:11:26;;;;;;;7.03;1.57;;;;;9.40;100611.00;;;;10035177;29;20209;-79
2023/02/25 10:16:57;;;;;;;5.37;1.80;;;;;9.40;100612.00;;;;10037381;29;20196;-79
2023/02/25 10:22:06;;;;;;;6.70;1.60;;;;;9.70;100614.00;;;;10025841;29;20201;-79
2023/02/25 10:27:31;;;;;;;14.73;2.17;;;;;9.40;100625.00;;;;10043376;29;20240;-79
2023/02/25 10:32:35;;;;;;;15.70;2.13;;;;;9.70;100627.00;;;;10052098;29;20205;-79
2023/02/25 10:37:38;;;;;;;17.50;1.83;;;;;10.80;100613.00;;;;10073229;29;20189;-80
2023/02/25 10:42:44;;;;;;;9.47;1.80;;;;;9.50;100621.00;;;;10028335;29;20723;-78
2023/02/25 10:47:50;;;;;;;10.40;1.80;;;;;8.40;100626.00;;;;10014059;29;20843;-78
2023/02/25 10:53:03;;;;;;;9.70;1.73;;;;;7.70;100632.00;;;;10070732;29;20887;-78
2023/02/25 10:58:39;;;;;;;12.57;2.80;;;;;7.40;100629.00;;;;10063734;29;20668;-78
2023/02/25 11:03:57;;;;;;;9.80;2.23;;;;;7.30;100644.00;;;;10006103;29;20610;-78
2023/02/25 11:09:04;;;;;;;5.97;2.67;;;;;7.20;100650.00;;;;10027889;29;20212;-79
2023/02/25 11:14:14;;;;;;;8.87;3.13;;;;;7.00;100643.00;;;;10027160;29;20224;-79
2023/02/25 11:19:24;;;;;;;5.40;2.70;;;;;7.60;100635.00;;;;10026709;29;20200;-79
2023/02/25 11:24:33;;;;;;;7.23;2.80;;;;;9.60;100622.00;;;;9997094;29;20741;-78
2023/02/25 11:29:38;;;;;;;8.43;2.97;;;;;10.90;100601.00;;;;9996590;29;20253;-80
2023/02/25 11:34:52;;;;;;;12.10;2.43;;;;;11.20;100600.00;;;;10020741;29;20201;-81
2023/02/25 11:39:55;;;;;;;9.43;1.70;;;;;10.20;100607.00;;;;10036720;29;20217;-80
2023/02/25 11:45:02;;;;;;;8.97;1.50;;;;;9.00;100606.00;;;;10038367;29;20223;-81
2023/02/25 11:50:17;;;;;;;9.37;2.23;;;;;7.80;100613.00;;;;10020076;29;20228;-80
2023/02/25 11:55:57;;;;;;;14.57;2.13;;;;;7.40;100635.00;;;;10014649;29;20199;-80
2023/02/25 12:01:05;;;;;;;9.93;1.70;;;;;6.50;100655.00;;;;10018188;29;20189;-81
2023/02/25 12:06:32;;;;;;;7.37;2.60;;;;;6.20;100662.00;;;;10040430;29;20214;-81
2023/02/25 12:12:05;;;;;;;5.60;1.80;;;;;6.50;100648.00;;;;10023264;29;20284;-79
2023/02/25 12:17:58;;;;;;;4.13;1.60;;;;;7.00;100644.00;;;;10072223;29;20234;-81
2023/02/25 12:23:17;;;;;;;5.73;2.03;;;;;7.40;100647.00;;;;10005017;29;20212;-81
2023/02/25 12:28:43;;;;;;;9.50;1.70;;;;;7.90;100644.00;;;;10030803;29;20204;-82
2023/02/25 12:34:10;;;;;;;5.53;1.60;;;;;8.40;100645.00;;;;10051452;29;20284;-81
2023/02/25 12:45:14;;;;;;;9.93;1.77;;;;;10.10;100627.00;;;;10474652;28;20550;-80
2023/02/25 12:50:32;;;;;;;6.80;1.90;;;;;10.40;100616.00;;;;10392683;28;20279;-80
2023/02/25 12:56:06;;;;;;;10.30;2.30;;;;;11.00;100605.00;;;;10447644;28;20209;-80
2023/02/25 13:01:49;;;;;;;5.73;1.40;;;;;12.10;100604.00;;;;10411292;28;20636;-80
2023/02/25 13:07:23;;;;;;;2.57;1.00;;;;;11.60;100623.00;;;;10399814;28;20285;-79
2023/02/25 13:12:52;;;;;;;3.80;0.90;;;;;10.10;100629.00;;;;10393367;28;20281;-79
2023/02/25 13:17:53;;;;;;;4.23;1.00;;;;;10.00;100618.00;;;;10424993;28;20487;-78
2023/02/25 13:23:01;;;;;;;7.90;1.63;;;;;10.20;100618.00;;;;10441854;28;20622;-79
2023/02/25 13:28:25;;;;;;;3.93;1.50;;;;;10.10;100619.00;;;;10427968;28;20191;-79
2023/02/25 13:33:47;;;;;;;5.67;1.47;;;;;9.90;100643.00;;;;10432986;28;20248;-79
2023/02/25 13:39:25;;;;;;;2.27;0.80;;;;;9.30;100648.00;;;;10441199;28;20226;-78
2023/02/25 13:44:46;;;;;;;1.70;0.70;;;;;9.00;100649.00;;;;10407336;28;20320;-81
2023/02/25 13:50:22;;;;;;;1.07;0.63;;;;;10.30;100646.00;;;;10409746;28;20229;-81
2023/02/25 13:55:45;;;;;;;1.73;0.93;;;;;10.80;100647.00;;;;10382348;28;20188;-80
2023/02/25 14:01:06;;;;;;;3.93;0.87;;;;;11.20;100648.00;;;;10369275;28;20218;-80
2023/02/25 14:06:34;;;;;;;2.97;1.27;;;;;11.40;100655.00;;;;10393840;28;20268;-80
2023/02/25 14:11:55;;;;;;;2.73;0.90;;;;;12.00;100645.00;;;;10372772;28;20577;-80
2023/02/25 14:17:35;;;;;;;4.37;1.00;;;;;14.40;100649.00;;;;10389316;28;20704;-82
2023/02/25 14:22:55;;;;;;;3.07;0.87;;;;;10.70;100657.00;;;;10370128;28;20214;-81
2023/02/25 14:28:16;;;;;;;3.33;0.83;;;;;9.00;100686.00;;;;10392284;28;20194;-80
2023/02/25 14:33:42;;;;;;;3.73;0.70;;;;;8.40;100678.00;;;;10375843;28;20188;-80
2023/02/25 14:39:05;;;;;;;4.10;1.37;;;;;8.20;100684.00;;;;10361621;28;20210;-80
2023/02/25 14:44:33;;;;;;;2.50;0.80;;;;;7.90;100687.00;;;;10360955;28;20225;-80
2023/02/25 14:49:46;;;;;;;3.50;1.20;;;;;7.60;100689.00;;;;10361528;28;20642;-80
2023/02/25 14:55:19;;;;;;;3.43;0.83;;;;;8.70;100680.00;;;;10368453;28;20543;-80
2023/02/25 15:00:39;;;;;;;3.87;1.00;;;;;10.00;100693.00;;;;10389460;28;20210;-80
2023/02/25 15:05:57;;;;;;;4.40;1.53;;;;;9.80;100670.00;;;;10391544;28;20205;-80
2023/02/25 15:11:18;;;;;;;1.77;0.97;;;;;12.50;100653.00;;;;10380860;28;20199;-80
2023/02/25 15:16:29;;;;;;;5.33;1.03;;;;;13.90;100649.00;;;;10346484;28;20282;-81
2023/02/25 15:21:43;;;;;;;2.30;0.90;;;;;14.50;100656.00;;;;10362018;28;20199;-81
2023/02/25 15:26:47;;;;;;;4.97;1.60;;;;;13.70;100712.00;;;;10387222;28;20192;-81
2023/02/25 15:32:11;;;;;;;5.30;1.00;;;;;13.10;100716.00;;;;10355002;28;20191;-81
2023/02/25 15:37:31;;;;;;;8.33;1.60;;;;;10.10;100732.00;;;;10363495;28;20195;-81
2023/02/25 15:42:54;;;;;;;3.00;1.23;;;;;9.10;100741.00;;;;10392464;28;20310;-81
2023/02/25 15:48:05;;;;;;;3.47;1.00;;;;;8.10;100747.00;;;;10391336;28;20186;-81
2023/02/25 15:53:20;;;;;;;8.00;1.67;;;;;7.70;100744.00;;;;10362941;28;20282;-81
2023/02/25 15:58:22;;;;;;;5.23;1.40;;;;;7.30;100755.00;;;;10393940;28;20249;-80
2023/02/25 16:03:33;;;;;;;7.10;1.50;;;;;6.90;100755.00;;;;10395599;28;20202;-80
2023/02/25 16:09:03;;;;;;;3.77;1.10;;;;;6.60;100762.00;;;;10406492;28;20868;-80
2023/02/25 16:14:13;;;;;;;7.50;1.67;;;;;6.50;100766.00;;;;10401110;28;20230;-80
2023/02/25 16:19:18;;;;;;;4.30;1.00;;;;;6.40;100774.00;;;;10361507;28;20198;-79
2023/02/25 16:24:22;;;;;;;4.43;1.33;;;;;6.40;100781.00;;;;10353354;28;20239;-80
2023/02/25 16:29:49;;;;;;;2.50;1.10;;;;;6.20;100786.00;;;;10356365;28;20266;-80
2023/02/25 16:35:00;;;;;;;3.87;1.30;;;;;6.10;100800.00;;;;10409417;28;20187;-79
2023/02/25 16:40:03;;;;;;;3.67;1.00;;;;;5.90;100806.00;;;;10385337;28;20210;-80
2023/02/25 16:45:06;;;;;;;3.20;1.10;;;;;5.80;100813.00;;;;10366688;28;20858;-79
2023/02/25 16:50:14;;;;;;;8.13;1.47;;;;;5.60;100824.00;;;;10382540;28;20249;-80
2023/02/25 16:55:22;;;;;;;4.40;1.33;;;;;5.50;100827.00;;;;10363327;28;20191;-79
2023/02/25 17:00:25;;;;;;;4.13;1.00;;;;;5.30;100836.00;;;;10399407;28;20578;-80
2023/02/25 17:11:17;;;;;;;1.83;0.80;;;;;4.90;100853.00;;;;9795809;30;20216;-77
2023/02/25 17:16:35;;;;;;;4.10;1.13;;;;;4.70;100860.00;;;;9823554;30;20211;-78
2023/02/25 17:21:43;;;;;;;6.10;1.50;;;;;4.50;100873.00;;;;9832230;30;20299;-78
2023/02/25 17:26:48;;;;;;;4.30;1.10;;;;;4.50;100875.00;;;;9805380;30;20209;-77
2023/02/25 17:31:53;;;;;;;8.07;1.97;;;;;4.40;100883.00;;;;9835949;30;20711;-77
2023/02/25 17:36:58;;;;;;;2.57;1.13;;;;;4.30;100882.00;;;;9804844;30;20774;-77
2023/02/25 17:42:00;;;;;;;7.30;1.67;;;;;4.20;100893.00;;;;9834954;30;20303;-78
2023/02/25 17:47:04;;;;;;;5.47;1.30;;;;;4.10;100904.00;;;;9833534;30;20208;-77
2023/02/25 17:52:34;;;;;;;3.70;1.60;;;;;4.00;100916.00;;;;9823596;30;20204;-77
2023/02/25 17:57:40;;;;;;;3.07;1.30;;;;;3.90;100918.00;;;;9823469;30;20246;-77
2023/02/25 18:02:43;;;;;;;19.17;7.67;;;;;3.80;100935.00;;;;9834672;30;20273;-78
2023/02/25 18:08:02;;;;;;;5.37;1.10;;;;;3.60;100930.00;;;;9849776;29;20326;-77
2023/02/25 18:13:04;;;;;;;5.70;1.40;;;;;3.60;100946.00;;;;9874007;29;20212;-76
2023/02/25 18:18:06;;;;;;;8.53;1.70;;;;;3.50;100954.00;;;;9860427;29;20644;-77
2023/02/25 18:23:24;;;;;;;5.33;1.30;;;;;3.50;100963.00;;;;9846627;29;20405;-77
2023/02/25 18:28:26;;;;;;;5.17;1.93;;;;;3.40;100970.00;;;;9857637;29;20208;-77
2023/02/25 18:33:28;;;;;;;5.57;1.57;;;;;3.30;100973.00;;;;9850703;29;20217;-77
2023/02/25 18:38:30;;;;;;;7.77;1.80;;;;;3.20;100980.00;;;;9852349;29;20203;-77
2023/02/25 18:43:33;;;;;;;2.43;1.30;;;;;3.00;100980.00;;;;9856956;30;20265;-77
2023/02/25 18:48:35;;;;;;;5.10;1.73;;;;;2.90;100984.00;;;;9847029;29;20242;-78
2023/02/25 18:53:37;;;;;;;7.10;1.93;;;;;2.90;101002.00;;;;9885843;29;20216;-77
2023/02/25 18:58:39;;;;;;;7.27;2.07;;;;;2.80;100998.00;;;;9870173;29;20230;-77
2023/02/25 19:03:44;;;;;;;4.70;1.83;;;;;2.70;101008.00;;;;9863979;29;20548;-78
2023/02/25 19:08:46;;;;;;;8.53;2.00;;;;;2.70;101009.00;;;;9845029;30;20239;-77
2023/02/25 19:13:49;;;;;;;6.57;1.90;;;;;2.60;101020.00;;;;9856550;29;20212;-77
2023/02/25 19:18:51;;;;;;;7.10;2.30;;;;;2.50;101031.00;;;;9855129;29;20843;-77
2023/02/25 19:23:54;;;;;;;8.13;2.50;;;;;2.40;101036.00;;;;9885720;29;20238;-77
2023/02/25 19:28:56;;;;;;;7.00;1.70;;;;;2.30;101041.00;;;;9867247;29;20271;-77
2023/02/25 19:33:58;;;;;;;5.20;1.97;;;;;2.30;101047.00;;;;9869736;29;20211;-77
2023/02/25 19:39:00;;;;;;;3.50;1.60;;;;;2.20;101049.00;;;;9851988;29;20239;-77
2023/02/25 19:44:02;;;;;;;6.53;2.37;;;;;2.10;101058.00;;;;9874841;29;20714;-77
2023/02/25 19:49:14;;;;;;;5.17;2.07;;;;;2.00;101061.00;;;;9866321;29;20307;-77
2023/02/25 19:54:17;;;;;;;9.83;2.30;;;;;1.90;101070.00;;;;9861845;29;20215;-77
2023/02/25 19:59:19;;;;;;;5.63;2.13;;;;;1.90;101084.00;;;;9852912;29;20212;-77
2023/02/25 20:04:22;;;;;;;6.67;1.90;;;;;1.80;101096.00;;;;9860575;29;20215;-77
2023/02/25 20:09:24;;;;;;;5.50;1.93;;;;;1.70;101099.00;;;;9889455;29;20242;-77
2023/02/25 20:14:31;;;;;;;3.70;2.37;;;;;1.70;101105.00;;;;9848346;30;20199;-77
2023/02/25 20:19:33;;;;;;;10.27;2.03;;;;;1.70;101103.00;;;;9865648;29;20208;-79
2023/02/25 20:24:35;;;;;;;9.10;2.07;;;;;1.60;101119.00;;;;9849669;29;20212;-79
2023/02/25 20:29:38;;;;;;;6.40;2.33;;;;;1.60;101117.00;;;;9864267;29;20598;-76
2023/02/25 20:34:40;;;;;;;7.23;2.13;;;;;1.50;101129.00;;;;9852443;29;20220;-79
2023/02/25 20:39:48;;;;;;;7.73;2.27;;;;;1.40;101131.00;;;;9873364;29;20279;-79
2023/02/25 20:44:51;;;;;;;8.40;1.97;;;;;1.20;101146.00;;;;9862730;29;20226;-79
2023/02/25 20:49:55;;;;;;;5.67;1.90;;;;;1.20;101154.00;;;;9863754;29;20645;-79
2023/02/25 20:54:57;;;;;;;10.87;3.17;;;;;1.10;101157.00;;;;9851431;29;20219;-79
2023/02/25 20:59:59;;;;;;;6.73;2.67;;;;;1.00;101166.00;;;;9876871;29;20216;-76
2023/02/25 21:05:01;;;;;;;5.43;2.50;;;;;0.90;101183.00;;;;9878847;30;20319;-76
2023/02/25 21:10:04;;;;;;;7.47;2.43;;;;;0.80;101177.00;;;;9926022;29;20227;-79
2023/02/25 21:15:07;;;;;;;5.10;2.30;;;;;0.80;101189.00;;;;9898550;29;20214;-77
2023/02/25 21:20:10;;;;;;;10.40;2.73;;;;;0.70;101190.00;;;;9906597;29;20199;-79
2023/02/25 21:25:12;;;;;;;5.23;2.20;;;;;0.60;101203.00;;;;9904475;29;20210;-79
2023/02/25 21:30:14;;;;;;;8.00;2.93;;;;;0.60;101206.00;;;;9895778;29;20214;-79
2023/02/25 21:35:16;;;;;;;9.63;2.77;;;;;0.50;101207.00;;;;9907039;29;20196;-76
2023/02/25 21:40:18;;;;;;;6.37;2.67;;;;;0.50;101203.00;;;;9926819;29;20210;-79
2023/02/25 21:45:21;;;;;;;9.03;3.17;;;;;0.40;101196.00;;;;9903643;29;20217;-79
2023/02/25 21:50:23;;;;;;;7.87;3.53;;;;;0.30;101214.00;;;;9899392;29;20211;-78
2023/02/25 21:55:25;;;;;;;6.83;3.40;;;;;0.20;101217.00;;;;9909262;29;20191;-78
2023/02/25 22:00:28;;;;;;;10.27;3.13;;;;;0.10;101215.00;;;;9917733;29;20279;-78
2023/02/25 22:05:31;;;;;;;8.23;3.43;;;;;0.00;101217.00;;;;9872134;29;20683;-78
2023/02/25 22:10:34;;;;;;;5.93;3.10;;;;;0.00;101215.00;;;;9901383;29;20239;-78
2023/02/25 22:15:36;;;;;;;7.67;3.30;;;;;-0.10;101217.00;;;;9886889;30;20187;-78
2023/02/25 22:20:38;;;;;;;10.97;3.23;;;;;-0.10;101210.00;;;;9869619;29;20286;-78
2023/02/25 22:25:40;;;;;;;9.17;3.20;;;;;-0.10;101221.00;;;;9853056;30;20219;-78
2023/02/25 22:30:45;;;;;;;7.07;2.77;;;;;-0.10;101232.00;;;;9864506;29;20222;-78
2023/02/25 22:36:04;;;;;;;4.40;2.70;;;;;-0.10;101224.00;;;;9870120;29;20291;-79
2023/02/25 22:41:18;;;;;;;8.27;3.03;;;;;-0.10;101226.00;;;;9863153;29;20195;-79
2023/02/25 22:46:28;;;;;;;8.13;2.63;;;;;-0.20;101230.00;;;;9842781;30;20275;-78
2023/02/25 22:51:33;;;;;;;6.97;2.57;;;;;-0.30;101233.00;;;;9843415;30;20272;-79
2023/02/25 22:56:35;;;;;;;6.17;2.37;;;;;-0.20;101237.00;;;;9871340;30;20211;-79
2023/02/25 23:01:37;;;;;;;10.33;2.67;;;;;-0.20;101245.00;;;;9857381;29;20258;-78
2023/02/25 23:06:39;;;;;;;7.67;1.97;;;;;-0.20;101250.00;;;;9835284;30;20224;-79
2023/02/25 23:11:45;;;;;;;5.37;3.07;;;;;-0.20;101256.00;;;;9870801;30;20223;-78
2023/02/25 23:16:47;;;;;;;9.40;2.57;;;;;-0.20;101269.00;;;;9844290;30;20208;-78
2023/02/25 23:21:49;;;;;;;7.50;2.60;;;;;0.00;101260.00;;;;9838892;30;20212;-78
2023/02/25 23:26:53;;;;;;;8.27;3.17;;;;;0.10;101259.00;;;;9854659;29;20215;-79
2023/02/25 23:31:55;;;;;;;5.13;2.33;;;;;0.10;101259.00;;;;9890767;29;20199;-79
2023/02/25 23:36:57;;;;;;;11.10;3.63;;;;;0.10;101268.00;;;;9865685;29;20549;-79
2023/02/25 23:41:59;;;;;;;9.60;3.37;;;;;0.10;101266.00;;;;9891189;29;20242;-79
2023/02/25 23:47:01;;;;;;;12.13;3.90;;;;;0.00;101270.00;;;;9873457;30;20203;-79
2023/02/25 23:52:03;;;;;;;9.40;3.30;;;;;0.10;101270.00;;;;9856585;30;20199;-78
2023/02/25 23:57:05;;;;;;;11.27;3.77;;;;;0.00;101262.00;;;;9886897;30;20284;-79
